createdAt,value
2019-06-27T00:01:15.768Z,19.22
2019-06-27T00:03:45.176Z,19.25
2019-06-27T00:06:15.892Z,19.28
2019-06-27T00:08:45.453Z,19.30
2019-06-27T00:11:15.845Z,19.25
2019-06-27T00:13:45.413Z,19.21
2019-06-27T00:16:15.951Z,19.17
2019-06-27T00:18:45.607Z,19.18
2019-06-27T00:21:15.924Z,19.23
2019-06-27T00:23:45.495Z,19.22
2019-06-27T00:26:15.873Z,19.13
2019-06-27T00:28:45.672Z,19.06
2019-06-27T00:31:15.813Z,18.98
2019-06-27T00:33:45.197Z,18.88
2019-06-27T00:36:15.943Z,18.77
2019-06-27T00:38:45.535Z,18.75
2019-06-27T00:41:15.903Z,18.72
2019-06-27T00:43:45.471Z,18.70
2019-06-27T00:46:15.858Z,18.65
2019-06-27T00:48:45.514Z,18.62
2019-06-27T00:51:15.974Z,18.48
2019-06-27T00:53:45.546Z,18.36
2019-06-27T00:56:15.932Z,18.33
2019-06-27T00:58:45.497Z,18.22
2019-06-27T01:01:15.994Z,18.10
2019-06-27T01:03:45.673Z,18.03
2019-06-27T01:06:16.013Z,18.04
2019-06-27T01:08:46.576Z,18.01
2019-06-27T01:11:16.019Z,17.96
2019-06-27T01:13:45.521Z,17.93
2019-06-27T01:16:15.934Z,17.90
2019-06-27T01:18:45.586Z,17.81
2019-06-27T01:21:16.082Z,17.81
2019-06-27T01:23:45.620Z,17.81
2019-06-27T01:26:16.010Z,17.80
2019-06-27T01:28:45.567Z,17.78
2019-06-27T01:31:15.952Z,17.72
2019-06-27T01:33:45.319Z,17.69
2019-06-27T01:36:16.086Z,17.70
2019-06-27T01:38:45.645Z,17.75
2019-06-27T01:41:16.117Z,17.77
2019-06-27T01:43:45.595Z,17.74
2019-06-27T01:46:15.982Z,17.73
2019-06-27T01:48:45.637Z,17.73
2019-06-27T01:51:16.092Z,17.72
2019-06-27T01:53:45.663Z,17.70
2019-06-27T01:56:16.252Z,17.71
2019-06-27T01:58:45.618Z,17.67
2019-06-27T02:01:16.177Z,17.61
2019-06-27T02:03:45.768Z,17.54
2019-06-27T02:06:16.320Z,17.50
2019-06-27T02:08:45.745Z,17.48
2019-06-27T02:11:16.094Z,17.48
2019-06-27T02:13:45.648Z,17.50
2019-06-27T02:16:16.014Z,17.50
2019-06-27T02:18:45.402Z,17.49
2019-06-27T02:21:16.158Z,17.42
2019-06-27T02:23:45.785Z,17.32
2019-06-27T02:26:16.857Z,17.27
2019-06-27T02:28:46.271Z,17.23
2019-06-27T02:31:16.064Z,17.23
2019-06-27T02:33:45.763Z,17.28
2019-06-27T02:36:16.144Z,17.31
2019-06-27T02:38:45.819Z,17.32
2019-06-27T02:41:16.126Z,17.33
2019-06-27T02:43:45.814Z,17.36
2019-06-27T02:46:16.075Z,17.38
2019-06-27T02:48:46.561Z,17.40
2019-06-27T02:51:16.286Z,17.38
2019-06-27T02:53:45.847Z,17.40
2019-06-27T02:56:16.163Z,17.46
2019-06-27T02:58:45.765Z,17.51
2019-06-27T03:01:16.154Z,17.50
2019-06-27T03:03:45.550Z,17.46
2019-06-27T03:06:14.945Z,17.39
2019-06-27T03:08:44.313Z,17.32
2019-06-27T03:11:13.811Z,17.26
2019-06-27T03:13:43.175Z,17.32
2019-06-27T03:16:12.877Z,17.30
2019-06-27T03:18:42.358Z,17.13
2019-06-27T03:21:12.059Z,17.05
2019-06-27T03:23:41.472Z,16.99
2019-06-27T03:26:11.024Z,16.84
2019-06-27T03:28:51.585Z,16.71
2019-06-27T03:31:11.504Z,16.71
2019-06-27T03:33:41.648Z,16.72
2019-06-27T03:36:11.094Z,16.72
2019-06-27T03:38:40.530Z,16.72
2019-06-27T03:41:10.073Z,16.69
2019-06-27T03:43:39.438Z,16.61
2019-06-27T03:46:08.843Z,16.60
2019-06-27T03:48:38.255Z,16.56
2019-06-27T03:51:07.676Z,16.56
2019-06-27T03:53:37.097Z,16.57
2019-06-27T03:56:07.454Z,16.58
2019-06-27T03:58:37.053Z,16.62
2019-06-27T04:01:06.499Z,16.65
2019-06-27T04:03:36.181Z,16.60
2019-06-27T04:06:05.597Z,16.54
2019-06-27T04:08:35.172Z,16.48
2019-06-27T04:11:04.664Z,16.44
2019-06-27T04:13:34.154Z,16.42
2019-06-27T04:16:03.538Z,16.41
2019-06-27T04:18:33.346Z,16.44
2019-06-27T04:21:03.078Z,16.48
2019-06-27T04:23:32.446Z,16.52
2019-06-27T04:26:02.193Z,16.50
2019-06-27T04:28:31.856Z,16.48
2019-06-27T04:31:01.271Z,16.37
2019-06-27T04:33:30.699Z,16.26
2019-06-27T04:36:00.202Z,16.18
2019-06-27T04:38:29.629Z,16.12
2019-06-27T04:40:59.160Z,16.09
2019-06-27T04:43:28.582Z,16.19
2019-06-27T04:45:58.222Z,16.26
2019-06-27T04:48:27.742Z,16.40
2019-06-27T04:50:57.164Z,16.46
2019-06-27T04:53:26.627Z,16.55
2019-06-27T04:55:56.359Z,16.61
2019-06-27T04:58:25.802Z,16.53
2019-06-27T05:00:55.784Z,16.44
2019-06-27T05:03:25.519Z,16.39
2019-06-27T05:05:55.250Z,16.38
2019-06-27T05:08:24.739Z,16.41
2019-06-27T05:10:54.356Z,16.38
2019-06-27T05:13:23.765Z,16.33
2019-06-27T05:15:53.256Z,16.36
2019-06-27T05:18:22.684Z,16.42
2019-06-27T05:20:52.248Z,16.45
2019-06-27T05:23:21.929Z,16.50
2019-06-27T05:25:51.419Z,16.59
2019-06-27T05:28:20.832Z,16.64
2019-06-27T05:30:51.501Z,16.67
2019-06-27T05:33:22.047Z,16.72
2019-06-27T05:35:51.859Z,16.76
2019-06-27T05:38:21.556Z,16.75
2019-06-27T05:40:50.919Z,16.76
2019-06-27T05:43:20.625Z,16.85
2019-06-27T05:45:50.331Z,16.93
2019-06-27T05:48:19.725Z,17.02
2019-06-27T05:50:49.341Z,17.06
2019-06-27T05:53:18.719Z,17.00
2019-06-27T05:55:48.306Z,16.88
2019-06-27T05:58:18.019Z,16.77
2019-06-27T06:00:47.591Z,16.64
2019-06-27T06:03:17.420Z,16.65
2019-06-27T06:05:47.113Z,16.71
2019-06-27T06:08:16.761Z,16.68
2019-06-27T06:10:46.383Z,16.61
2019-06-27T06:13:16.671Z,16.56
2019-06-27T06:15:46.145Z,16.53
2019-06-27T06:18:16.776Z,16.50
2019-06-27T06:20:46.467Z,16.58
2019-06-27T06:23:16.737Z,16.75
2019-06-27T06:25:46.385Z,16.88
2019-06-27T06:28:16.724Z,16.98
2019-06-27T06:30:46.088Z,16.98
2019-06-27T06:33:16.855Z,16.94
2019-06-27T06:35:46.484Z,16.97
2019-06-27T06:38:16.757Z,17.13
2019-06-27T06:40:46.480Z,17.36
2019-06-27T06:43:16.783Z,17.67
2019-06-27T06:45:46.511Z,17.92
2019-06-27T06:48:16.878Z,18.12
2019-06-27T06:50:46.548Z,18.28
2019-06-27T06:53:16.829Z,18.43
2019-06-27T06:55:46.410Z,18.53
2019-06-27T06:58:16.781Z,18.60
2019-06-27T07:01:00.753Z,18.60
2019-06-27T07:03:18.516Z,18.61
2019-06-27T07:05:47.871Z,18.71
2019-06-27T07:08:17.588Z,18.87
2019-06-27T07:10:46.963Z,19.02
2019-06-27T07:13:16.898Z,19.11
2019-06-27T07:15:46.520Z,19.27
2019-06-27T07:18:16.944Z,19.22
2019-06-27T07:20:46.486Z,18.94
2019-06-27T07:23:16.869Z,18.76
2019-06-27T07:25:46.235Z,18.68
2019-06-27T07:28:15.676Z,18.74
2019-06-27T07:30:45.052Z,18.75
2019-06-27T07:33:14.745Z,18.75
2019-06-27T07:35:44.083Z,18.81
2019-06-27T07:38:13.777Z,18.80
2019-06-27T07:40:43.476Z,18.75
2019-06-27T07:43:12.861Z,18.75
2019-06-27T07:45:42.264Z,18.91
2019-06-27T07:48:11.630Z,19.23
2019-06-27T07:50:41.028Z,19.50
2019-06-27T07:53:10.628Z,19.79
2019-06-27T07:55:40.087Z,20.23
2019-06-27T07:58:09.608Z,20.53
2019-06-27T08:00:39.031Z,20.80
2019-06-27T08:03:08.633Z,20.98
2019-06-27T08:05:38.056Z,21.01
2019-06-27T08:08:07.672Z,21.13
2019-06-27T08:10:37.047Z,21.31
2019-06-27T08:13:06.639Z,21.55
2019-06-27T08:15:36.006Z,21.80
2019-06-27T08:18:05.729Z,22.03
2019-06-27T08:20:35.101Z,22.15
2019-06-27T08:23:04.651Z,22.28
2019-06-27T08:25:34.031Z,22.31
2019-06-27T08:28:03.453Z,22.47
2019-06-27T08:30:32.957Z,22.83
2019-06-27T08:33:02.665Z,22.83
2019-06-27T08:35:33.640Z,22.94
2019-06-27T08:38:03.131Z,23.05
2019-06-27T08:40:32.840Z,22.72
2019-06-27T08:43:02.215Z,22.66
2019-06-27T08:45:31.958Z,22.82
2019-06-27T08:48:01.360Z,23.05
2019-06-27T08:50:31.019Z,23.15
2019-06-27T08:53:01.594Z,23.18
2019-06-27T08:55:31.101Z,23.08
2019-06-27T09:00:35.863Z,23.32
2019-06-27T09:03:45.331Z,23.46
2019-06-27T09:06:14.783Z,23.50
2019-06-27T09:08:44.192Z,23.54
2019-06-27T09:11:14.013Z,23.62
2019-06-27T09:13:43.433Z,23.80
2019-06-27T09:16:12.891Z,23.87
2019-06-27T09:18:42.331Z,23.88
2019-06-27T09:21:11.762Z,23.87
2019-06-27T09:23:41.170Z,24.08
2019-06-27T09:26:10.801Z,24.25
2019-06-27T09:28:40.265Z,24.45
2019-06-27T09:31:09.824Z,24.70
2019-06-27T09:33:39.259Z,24.95
2019-06-27T09:36:08.969Z,25.22
2019-06-27T09:38:38.412Z,25.42
2019-06-27T09:41:07.824Z,25.41
2019-06-27T09:43:37.201Z,25.53
2019-06-27T09:46:06.913Z,25.64
2019-06-27T09:48:36.322Z,25.68
2019-06-27T09:51:05.905Z,25.81
2019-06-27T09:53:35.382Z,25.95
2019-06-27T09:56:05.058Z,25.90
2019-06-27T09:58:34.505Z,25.79
2019-06-27T10:01:06.133Z,25.76
2019-06-27T10:03:40.896Z,25.84
2019-06-27T10:06:10.308Z,26.03
2019-06-27T10:08:39.943Z,26.25
2019-06-27T10:11:09.349Z,26.46
2019-06-27T10:13:38.912Z,26.50
2019-06-27T10:16:08.309Z,26.48
2019-06-27T10:18:38.029Z,26.60
2019-06-27T10:21:07.423Z,26.73
2019-06-27T10:23:36.923Z,26.87
2019-06-27T10:26:06.282Z,26.99
2019-06-27T10:28:35.937Z,27.16
2019-06-27T10:31:05.321Z,27.42
2019-06-27T10:33:35.018Z,27.29
2019-06-27T10:36:04.471Z,27.06
2019-06-27T10:38:46.232Z,27.00
2019-06-27T10:41:17.260Z,27.12
2019-06-27T10:43:47.240Z,27.31
2019-06-27T10:46:17.335Z,27.36
2019-06-27T10:48:47.042Z,27.44
2019-06-27T10:51:16.430Z,27.43
2019-06-27T10:53:46.006Z,27.45
2019-06-27T10:56:15.391Z,27.65
2019-06-27T10:58:44.931Z,27.91
2019-06-27T11:01:14.342Z,27.93
2019-06-27T11:03:44.499Z,27.94
2019-06-27T11:06:14.421Z,27.89
2019-06-27T11:08:44.085Z,27.91
2019-06-27T11:11:13.656Z,28.02
2019-06-27T11:13:57.910Z,28.19
2019-06-27T11:16:33.534Z,28.32
2019-06-27T11:19:03.288Z,28.52
2019-06-27T11:21:32.970Z,28.30
2019-06-27T11:27:05.113Z,28.31
2019-06-27T11:29:34.491Z,28.07
2019-06-27T11:32:04.120Z,27.78
2019-06-27T11:34:35.206Z,27.28
2019-06-27T11:37:14.372Z,27.02
2019-06-27T11:39:43.723Z,27.02
2019-06-27T11:42:13.161Z,27.17
2019-06-27T11:44:42.766Z,27.35
2019-06-27T11:47:12.158Z,27.62
2019-06-27T11:49:41.752Z,27.74
2019-06-27T11:52:11.218Z,27.75
2019-06-27T11:54:40.595Z,27.81
2019-06-27T11:57:10.265Z,27.96
2019-06-27T11:59:39.629Z,27.97
2019-06-27T12:02:09.125Z,27.78
2019-06-27T12:04:38.534Z,27.88
2019-06-27T12:07:08.208Z,28.14
2019-06-27T12:09:37.585Z,28.44
2019-06-27T12:12:07.274Z,28.36
2019-06-27T12:14:36.631Z,28.00
2019-06-27T12:17:06.160Z,27.95
2019-06-27T12:19:35.576Z,28.18
2019-06-27T12:22:17.112Z,28.40
2019-06-27T12:24:46.531Z,28.37
2019-06-27T12:27:16.163Z,28.44
2019-06-27T12:29:45.517Z,28.79
2019-06-27T12:32:15.249Z,29.10
2019-06-27T12:34:44.614Z,29.40
2019-06-27T12:37:14.366Z,29.60
2019-06-27T12:39:56.105Z,29.80
2019-06-27T12:42:32.464Z,29.79
2019-06-27T12:45:02.341Z,29.63
2019-06-27T12:47:33.454Z,29.41
2019-06-27T12:50:03.322Z,29.01
2019-06-27T12:52:42.885Z,28.90
2019-06-27T12:55:12.291Z,28.98
2019-06-27T12:57:41.686Z,29.06
2019-06-27T13:03:45.413Z,29.42
2019-06-27T13:06:14.903Z,29.38
2019-06-27T13:08:44.266Z,29.52
2019-06-27T13:11:13.664Z,29.69
2019-06-27T13:13:43.323Z,29.60
2019-06-27T13:16:12.684Z,29.42
2019-06-27T13:18:42.340Z,29.36
2019-06-27T13:21:11.704Z,29.29
2019-06-27T13:23:42.701Z,29.22
2019-06-27T13:26:12.413Z,29.12
2019-06-27T13:28:41.812Z,29.01
2019-06-27T13:31:11.265Z,28.75
2019-06-27T13:33:40.642Z,28.53
2019-06-27T13:36:10.263Z,28.41
2019-06-27T13:38:39.649Z,28.50
2019-06-27T13:41:09.020Z,28.68
2019-06-27T13:43:38.446Z,28.80
2019-06-27T13:46:07.802Z,28.79
2019-06-27T13:48:37.688Z,28.89
2019-06-27T13:51:07.532Z,28.95
2019-06-27T13:53:36.912Z,28.96
2019-06-27T13:56:06.660Z,28.95
2019-06-27T13:58:36.075Z,28.94
2019-06-27T14:01:05.755Z,28.75
2019-06-27T14:03:48.705Z,28.59
2019-06-27T14:06:25.800Z,28.50
2019-06-27T14:08:55.351Z,28.41
2019-06-27T14:11:25.061Z,28.41
2019-06-27T14:13:54.504Z,28.50
2019-06-27T14:16:23.942Z,28.65
2019-06-27T14:18:53.475Z,28.60
2019-06-27T14:21:22.956Z,28.57
2019-06-27T14:23:52.349Z,28.64
2019-06-27T14:26:21.754Z,28.80
2019-06-27T14:28:51.402Z,28.89
2019-06-27T14:31:20.806Z,29.04
2019-06-27T14:39:35.010Z,28.15
2019-06-27T14:42:04.547Z,28.07
2019-06-27T14:44:33.922Z,27.96
2019-06-27T14:47:03.783Z,27.95
2019-06-27T14:49:33.674Z,28.05
2019-06-27T14:52:03.367Z,27.98
2019-06-27T14:54:32.758Z,27.77
2019-06-27T14:57:02.115Z,27.61
2019-06-27T14:59:31.782Z,27.52
2019-06-27T15:02:01.489Z,27.54
2019-06-27T15:04:30.917Z,27.43
2019-06-27T15:07:00.570Z,27.19
2019-06-27T15:09:29.926Z,26.97
2019-06-27T15:11:59.687Z,26.48
2019-06-27T15:14:29.047Z,26.32
2019-06-27T15:16:58.757Z,26.40
2019-06-27T15:19:28.133Z,26.65
2019-06-27T15:21:57.529Z,26.87
2019-06-27T15:24:28.826Z,26.90
2019-06-27T15:26:58.093Z,26.88
2019-06-27T15:29:27.772Z,26.88
2019-06-27T15:31:57.066Z,26.91
2019-06-27T15:34:26.750Z,26.94
2019-06-27T15:36:56.410Z,27.06
2019-06-27T15:39:37.199Z,27.08
2019-06-27T15:42:06.701Z,26.95
2019-06-27T15:44:36.116Z,26.80
2019-06-27T15:47:05.518Z,26.48
2019-06-27T15:52:29.668Z,26.47
2019-06-27T15:54:59.360Z,26.46
2019-06-27T15:57:30.791Z,26.41
2019-06-27T16:00:00.222Z,26.35
2019-06-27T16:02:29.887Z,26.27
2019-06-27T16:04:59.605Z,26.17
2019-06-27T16:07:29.091Z,25.97
2019-06-27T16:10:00.162Z,25.96
2019-06-27T16:12:29.863Z,25.89
2019-06-27T16:14:59.220Z,25.75
2019-06-27T16:17:28.943Z,25.62
2019-06-27T16:19:58.589Z,25.57
2019-06-27T16:22:27.957Z,25.51
2019-06-27T16:24:57.424Z,25.43
2019-06-27T16:27:26.834Z,25.36
2019-06-27T16:29:56.228Z,25.16
2019-06-27T16:32:25.975Z,24.96
2019-06-27T16:34:55.682Z,24.91
2019-06-27T16:37:25.039Z,24.96
2019-06-27T16:39:54.712Z,25.03
2019-06-27T16:42:24.070Z,25.00
2019-06-27T16:44:53.862Z,25.01
2019-06-27T16:47:23.194Z,25.02
2019-06-27T16:49:52.986Z,24.93
2019-06-27T16:52:22.645Z,24.83
2019-06-27T16:54:52.063Z,24.73
2019-06-27T16:57:21.925Z,24.72
2019-06-27T16:59:51.461Z,24.75
2019-06-27T17:02:21.068Z,24.72
2019-06-27T17:04:50.813Z,24.63
2019-06-27T17:07:20.229Z,24.58
2019-06-27T17:09:49.738Z,24.46
2019-06-27T17:12:21.067Z,24.40
2019-06-27T17:14:50.790Z,24.37
2019-06-27T17:17:20.156Z,24.29
2019-06-27T17:19:49.814Z,24.12
2019-06-27T17:22:19.802Z,23.97
2019-06-27T17:24:49.300Z,23.88
2019-06-27T17:27:18.955Z,23.83
2019-06-27T17:29:48.326Z,23.79
2019-06-27T17:32:18.120Z,23.74
2019-06-27T17:34:47.786Z,23.63
2019-06-27T17:37:18.877Z,23.66
2019-06-27T17:39:58.837Z,23.69
2019-06-27T17:42:28.223Z,23.68
2019-06-27T17:44:57.938Z,23.62
2019-06-27T17:47:27.360Z,23.56
2019-06-27T17:49:56.827Z,23.53
2019-06-27T17:52:26.272Z,23.48
2019-06-27T17:54:55.801Z,23.46
2019-06-27T17:57:25.742Z,23.42
2019-06-27T18:00:14.460Z,23.34
2019-06-27T18:02:43.959Z,23.26
2019-06-27T18:05:13.561Z,23.20
2019-06-27T18:07:42.966Z,23.11
2019-06-27T18:13:46.899Z,22.87
2019-06-27T18:16:16.315Z,22.62
2019-06-27T18:18:45.914Z,22.54
2019-06-27T18:21:15.318Z,22.50
2019-06-27T18:23:45.228Z,22.40
2019-06-27T18:26:15.110Z,22.26
2019-06-27T18:28:44.797Z,22.12
2019-06-27T18:31:14.211Z,21.97
2019-06-27T18:33:43.947Z,21.87
2019-06-27T18:36:13.345Z,21.80
2019-06-27T18:38:42.943Z,21.64
2019-06-27T18:41:12.989Z,21.47
2019-06-27T18:44:15.089Z,21.35
2019-06-27T18:46:44.646Z,21.20
2019-06-27T18:49:14.247Z,21.07
2019-06-27T18:51:44.218Z,21.08
2019-06-27T18:54:13.863Z,21.04
2019-06-27T18:56:43.252Z,20.98
2019-06-27T18:59:12.934Z,20.92
2019-06-27T19:01:42.639Z,20.86
2019-06-27T19:04:24.660Z,20.75
2019-06-27T19:06:54.048Z,20.66
2019-06-27T19:09:23.402Z,20.55
2019-06-27T19:14:47.198Z,20.27
2019-06-27T19:17:16.583Z,20.16
2019-06-27T19:22:54.053Z,20.12
2019-06-27T19:25:25.862Z,20.08
2019-06-27T19:27:55.282Z,20.05
2019-06-27T19:30:24.934Z,19.97
2019-06-27T19:32:54.350Z,19.88
2019-06-27T19:35:24.254Z,19.80
2019-06-27T19:38:02.144Z,19.75
2019-06-27T19:40:34.626Z,19.68
2019-06-27T19:43:04.114Z,19.61
2019-06-27T19:45:33.525Z,19.57
2019-06-27T19:48:03.226Z,19.52
2019-06-27T19:50:32.587Z,19.45
2019-06-27T19:53:02.169Z,19.39
2019-06-27T19:55:31.522Z,19.33
2019-06-27T19:58:01.464Z,19.29
2019-06-27T20:03:33.294Z,19.25
2019-06-27T20:06:02.692Z,19.24
2019-06-27T20:08:32.396Z,19.25
2019-06-27T20:11:01.796Z,19.19
2019-06-27T20:13:43.707Z,19.05
2019-06-27T20:16:13.328Z,19.05
2019-06-27T20:18:42.739Z,19.01
2019-06-27T20:21:12.372Z,18.99
2019-06-27T20:23:41.961Z,18.91
2019-06-27T20:26:11.480Z,18.85
2019-06-27T20:28:40.839Z,18.82
2019-06-27T20:31:10.626Z,18.76
2019-06-27T20:33:40.399Z,18.70
2019-06-27T20:36:09.823Z,18.64
2019-06-27T20:38:39.654Z,18.59
2019-06-27T20:41:09.272Z,18.54
2019-06-27T20:43:38.935Z,18.43
2019-06-27T20:46:08.796Z,18.38
2019-06-27T20:48:38.758Z,18.28
2019-06-27T20:51:08.577Z,18.24
2019-06-27T20:53:38.169Z,18.15
2019-06-27T20:56:08.004Z,18.07
2019-06-27T20:58:37.999Z,18.03
2019-06-27T21:01:07.783Z,17.97
2019-06-27T21:03:37.916Z,17.89
2019-06-27T21:06:07.531Z,17.89
2019-06-27T21:08:50.217Z,17.88
2019-06-27T21:11:27.334Z,17.86
2019-06-27T21:13:56.860Z,17.81
2019-06-27T21:16:26.268Z,17.80
2019-06-27T21:18:55.781Z,17.77
2019-06-27T21:21:25.143Z,17.79
2019-06-27T21:23:54.806Z,17.86
2019-06-27T21:26:24.475Z,17.90
2019-06-27T21:28:54.058Z,17.91
2019-06-27T21:31:23.530Z,17.96
2019-06-27T21:33:52.908Z,17.99
2019-06-27T21:36:22.929Z,17.95
2019-06-27T21:39:06.630Z,17.95
2019-06-27T21:41:23.504Z,17.98
2019-06-27T21:43:52.984Z,17.99
2019-06-27T21:46:22.392Z,17.98
2019-06-27T21:48:51.936Z,17.96
2019-06-27T21:51:21.321Z,17.93
2019-06-27T21:53:51.023Z,17.91
2019-06-27T21:56:20.740Z,17.90
2019-06-27T21:58:50.140Z,17.86
2019-06-27T22:01:19.631Z,17.83
2019-06-27T22:03:49.130Z,17.86
2019-06-27T22:06:19.527Z,17.88
2019-06-27T22:08:49.157Z,17.87
2019-06-27T22:11:19.466Z,17.84
2019-06-27T22:13:49.137Z,17.83
2019-06-27T22:16:19.492Z,17.80
2019-06-27T22:18:49.160Z,17.78
2019-06-27T22:21:19.637Z,17.76
2019-06-27T22:23:49.161Z,17.76
2019-06-27T22:26:19.578Z,17.77
2019-06-27T22:28:49.284Z,17.74
2019-06-27T22:31:19.635Z,17.74
2019-06-27T22:33:50.240Z,17.75
2019-06-27T22:36:19.848Z,17.77
2019-06-27T22:39:06.981Z,17.82
2019-06-27T22:41:54.570Z,17.83
2019-06-27T22:44:42.060Z,17.86
2019-06-27T22:47:29.156Z,17.87
2019-06-27T22:49:58.038Z,17.83
2019-06-27T22:52:45.576Z,17.79
2019-06-27T22:55:19.246Z,17.77
2019-06-27T22:57:48.663Z,17.76
2019-06-27T23:00:30.533Z,17.71
2019-06-27T23:03:00.525Z,17.70
2019-06-27T23:05:29.902Z,17.70
2019-06-27T23:07:59.628Z,17.72
2019-06-27T23:10:29.537Z,17.75
2019-06-27T23:12:58.925Z,17.77
2019-06-27T23:15:28.584Z,17.75
2019-06-27T23:17:58.007Z,17.73
2019-06-27T23:20:27.661Z,17.72
2019-06-27T23:22:57.082Z,17.70
2019-06-27T23:25:26.535Z,17.68
2019-06-27T23:27:55.954Z,17.69
2019-06-27T23:30:25.917Z,17.66
2019-06-27T23:32:55.339Z,17.60
2019-06-27T23:35:24.859Z,17.54
2019-06-27T23:37:54.571Z,17.49
2019-06-27T23:40:23.931Z,17.43
2019-06-27T23:42:53.720Z,17.38
2019-06-27T23:45:23.384Z,17.31
2019-06-27T23:47:52.837Z,17.25
2019-06-27T23:50:22.233Z,17.23
2019-06-27T23:52:53.630Z,17.17
2019-06-27T23:55:24.003Z,17.13
2019-06-27T23:57:53.664Z,17.11
